Redstone, Colorado
Current Conditions -  °F | °C
As of 5:16 PM on Saturday 22 Nov 2014 (Local Time) from K5SM Reporting Station
Light Snow Light Snow  
Wind Chill: 28°   Ceiling: 2100
Heat Index: 28°   Visibility: 2mi
Dew Point: 27°   Wind: 0mph
Humidity: 93%   Direction: NA
Pressure: 29.86"   Gusts: NA
Location:  39.2397°N, 107.215°W
Report Text: K5SM 230016Z AUTO 00000KT 2SM -SN SCT007 OVC021 M02/M03 A2986 RMK AO2
Loading
Personal Weather Stations






























Interactive Weather Map New forecast layout! Learn more

10-Day Weather Forecast

Advertisements
Track Severe Weather on mobile